sensor_id;sensor_type;location;lat;lon;timestamp;P1;durP1;ratioP1;P2;durP2;ratioP2
830;SDS011;397;50.564;7.272;2023-12-22T00:01:58;5.73;;;2.20;;
830;SDS011;397;50.564;7.272;2023-12-22T00:04:25;7.13;;;1.97;;
830;SDS011;397;50.564;7.272;2023-12-22T00:06:52;11.50;;;2.20;;
830;SDS011;397;50.564;7.272;2023-12-22T00:09:21;6.80;;;2.00;;
830;SDS011;397;50.564;7.272;2023-12-22T00:11:48;4.30;;;2.23;;
830;SDS011;397;50.564;7.272;2023-12-22T00:14:15;4.00;;;2.30;;
830;SDS011;397;50.564;7.272;2023-12-22T00:16:42;4.47;;;1.97;;
830;SDS011;397;50.564;7.272;2023-12-22T00:19:10;6.60;;;2.00;;
830;SDS011;397;50.564;7.272;2023-12-22T00:21:37;13.07;;;2.37;;
830;SDS011;397;50.564;7.272;2023-12-22T00:24:04;4.20;;;1.50;;
830;SDS011;397;50.564;7.272;2023-12-22T00:26:32;10.63;;;3.03;;
830;SDS011;397;50.564;7.272;2023-12-22T00:28:59;5.27;;;1.90;;
830;SDS011;397;50.564;7.272;2023-12-22T00:31:26;6.43;;;2.20;;
830;SDS011;397;50.564;7.272;2023-12-22T00:33:53;6.63;;;1.87;;
830;SDS011;397;50.564;7.272;2023-12-22T00:36:21;5.10;;;1.50;;
830;SDS011;397;50.564;7.272;2023-12-22T00:38:50;5.63;;;1.00;;
830;SDS011;397;50.564;7.272;2023-12-22T00:41:17;1.90;;;0.70;;
830;SDS011;397;50.564;7.272;2023-12-22T00:43:44;3.77;;;0.90;;
830;SDS011;397;50.564;7.272;2023-12-22T00:46:12;1.40;;;0.50;;
830;SDS011;397;50.564;7.272;2023-12-22T00:48:40;4.80;;;1.10;;
830;SDS011;397;50.564;7.272;2023-12-22T00:51:07;4.83;;;1.40;;
830;SDS011;397;50.564;7.272;2023-12-22T00:53:34;7.13;;;1.23;;
830;SDS011;397;50.564;7.272;2023-12-22T00:56:02;7.27;;;1.40;;
830;SDS011;397;50.564;7.272;2023-12-22T00:58:32;2.60;;;0.73;;
830;SDS011;397;50.564;7.272;2023-12-22T01:00:59;3.10;;;1.20;;
830;SDS011;397;50.564;7.272;2023-12-22T01:03:26;2.93;;;1.10;;
830;SDS011;397;50.564;7.272;2023-12-22T01:05:54;6.23;;;1.17;;
830;SDS011;397;50.564;7.272;2023-12-22T01:08:21;3.73;;;1.00;;
830;SDS011;397;50.564;7.272;2023-12-22T01:10:48;3.50;;;1.23;;
830;SDS011;397;50.564;7.272;2023-12-22T01:13:15;4.17;;;1.13;;
830;SDS011;397;50.564;7.272;2023-12-22T01:15:43;4.97;;;1.00;;
830;SDS011;397;50.564;7.272;2023-12-22T01:18:10;3.13;;;1.40;;
830;SDS011;397;50.564;7.272;2023-12-22T01:20:38;4.67;;;1.30;;
830;SDS011;397;50.564;7.272;2023-12-22T01:23:05;4.23;;;1.00;;
830;SDS011;397;50.564;7.272;2023-12-22T01:25:32;5.30;;;1.90;;
830;SDS011;397;50.564;7.272;2023-12-22T01:27:59;2.37;;;1.40;;
830;SDS011;397;50.564;7.272;2023-12-22T01:30:27;6.37;;;1.57;;
830;SDS011;397;50.564;7.272;2023-12-22T01:32:54;4.47;;;1.30;;
830;SDS011;397;50.564;7.272;2023-12-22T01:35:21;4.80;;;0.93;;
830;SDS011;397;50.564;7.272;2023-12-22T01:37:48;4.00;;;1.63;;
830;SDS011;397;50.564;7.272;2023-12-22T01:40:16;5.13;;;1.50;;
830;SDS011;397;50.564;7.272;2023-12-22T01:42:44;5.23;;;1.77;;
830;SDS011;397;50.564;7.272;2023-12-22T01:45:11;7.43;;;1.67;;
830;SDS011;397;50.564;7.272;2023-12-22T01:47:39;8.23;;;1.97;;
830;SDS011;397;50.564;7.272;2023-12-22T01:50:06;4.63;;;2.50;;
830;SDS011;397;50.564;7.272;2023-12-22T01:52:36;6.10;;;1.40;;
830;SDS011;397;50.564;7.272;2023-12-22T01:55:04;3.87;;;1.53;;
830;SDS011;397;50.564;7.272;2023-12-22T01:57:32;5.97;;;1.57;;
830;SDS011;397;50.564;7.272;2023-12-22T02:00:01;3.83;;;1.60;;
830;SDS011;397;50.564;7.272;2023-12-22T02:02:29;5.90;;;1.50;;
830;SDS011;397;50.564;7.272;2023-12-22T02:04:57;4.73;;;2.47;;
830;SDS011;397;50.564;7.272;2023-12-22T02:07:25;8.27;;;1.60;;
830;SDS011;397;50.564;7.272;2023-12-22T02:09:52;3.67;;;1.60;;
830;SDS011;397;50.564;7.272;2023-12-22T02:12:19;5.30;;;1.50;;
830;SDS011;397;50.564;7.272;2023-12-22T02:14:46;4.80;;;1.60;;
830;SDS011;397;50.564;7.272;2023-12-22T02:17:24;3.60;;;1.17;;
830;SDS011;397;50.564;7.272;2023-12-22T02:19:49;10.23;;;1.90;;
830;SDS011;397;50.564;7.272;2023-12-22T02:22:17;6.27;;;1.50;;
830;SDS011;397;50.564;7.272;2023-12-22T02:24:45;5.03;;;1.47;;
830;SDS011;397;50.564;7.272;2023-12-22T02:30:07;5.47;;;1.63;;
830;SDS011;397;50.564;7.272;2023-12-22T02:32:30;7.53;;;1.43;;
830;SDS011;397;50.564;7.272;2023-12-22T02:34:55;5.83;;;1.97;;
830;SDS011;397;50.564;7.272;2023-12-22T02:37:22;9.00;;;1.50;;
830;SDS011;397;50.564;7.272;2023-12-22T02:39:53;6.53;;;1.90;;
830;SDS011;397;50.564;7.272;2023-12-22T02:42:21;5.00;;;1.97;;
830;SDS011;397;50.564;7.272;2023-12-22T02:44:50;4.50;;;2.00;;
830;SDS011;397;50.564;7.272;2023-12-22T02:47:17;9.33;;;1.97;;
830;SDS011;397;50.564;7.272;2023-12-22T02:49:45;3.30;;;1.63;;
830;SDS011;397;50.564;7.272;2023-12-22T02:52:12;7.03;;;2.00;;
830;SDS011;397;50.564;7.272;2023-12-22T02:54:39;7.83;;;2.13;;
830;SDS011;397;50.564;7.272;2023-12-22T02:57:07;6.93;;;2.00;;
830;SDS011;397;50.564;7.272;2023-12-22T02:59:35;14.17;;;2.33;;
830;SDS011;397;50.564;7.272;2023-12-22T03:02:03;5.03;;;1.63;;
830;SDS011;397;50.564;7.272;2023-12-22T03:04:30;6.40;;;2.50;;
830;SDS011;397;50.564;7.272;2023-12-22T03:06:58;7.23;;;1.50;;
830;SDS011;397;50.564;7.272;2023-12-22T03:09:25;7.23;;;2.23;;
830;SDS011;397;50.564;7.272;2023-12-22T03:11:52;9.23;;;2.67;;
830;SDS011;397;50.564;7.272;2023-12-22T03:14:20;4.83;;;1.80;;
830;SDS011;397;50.564;7.272;2023-12-22T03:16:48;11.57;;;2.37;;
830;SDS011;397;50.564;7.272;2023-12-22T03:19:15;7.13;;;2.00;;
830;SDS011;397;50.564;7.272;2023-12-22T03:21:42;11.37;;;2.70;;
830;SDS011;397;50.564;7.272;2023-12-22T03:24:09;10.77;;;4.60;;
830;SDS011;397;50.564;7.272;2023-12-22T03:26:37;20.57;;;3.03;;
830;SDS011;397;50.564;7.272;2023-12-22T03:29:04;7.00;;;2.57;;
830;SDS011;397;50.564;7.272;2023-12-22T03:31:31;10.20;;;3.30;;
830;SDS011;397;50.564;7.272;2023-12-22T03:33:58;18.50;;;3.97;;
830;SDS011;397;50.564;7.272;2023-12-22T03:36:26;11.60;;;3.83;;
830;SDS011;397;50.564;7.272;2023-12-22T03:38:53;10.87;;;2.97;;
830;SDS011;397;50.564;7.272;2023-12-22T03:41:20;9.37;;;2.63;;
830;SDS011;397;50.564;7.272;2023-12-22T03:43:47;12.70;;;3.43;;
830;SDS011;397;50.564;7.272;2023-12-22T03:46:15;13.43;;;4.83;;
830;SDS011;397;50.564;7.272;2023-12-22T03:48:42;8.27;;;3.60;;
830;SDS011;397;50.564;7.272;2023-12-22T03:51:09;24.87;;;3.93;;
830;SDS011;397;50.564;7.272;2023-12-22T03:53:38;14.20;;;4.10;;
830;SDS011;397;50.564;7.272;2023-12-22T03:56:06;10.50;;;2.80;;
830;SDS011;397;50.564;7.272;2023-12-22T03:58:34;11.17;;;4.00;;
830;SDS011;397;50.564;7.272;2023-12-22T04:01:01;11.00;;;5.00;;
830;SDS011;397;50.564;7.272;2023-12-22T04:03:29;12.77;;;3.50;;
830;SDS011;397;50.564;7.272;2023-12-22T04:05:56;7.60;;;3.30;;
830;SDS011;397;50.564;7.272;2023-12-22T04:08:23;16.43;;;5.70;;
830;SDS011;397;50.564;7.272;2023-12-22T04:10:51;11.30;;;3.60;;
830;SDS011;397;50.564;7.272;2023-12-22T04:13:18;8.67;;;3.40;;
830;SDS011;397;50.564;7.272;2023-12-22T04:15:45;10.40;;;3.03;;
830;SDS011;397;50.564;7.272;2023-12-22T04:18:12;12.37;;;3.50;;
830;SDS011;397;50.564;7.272;2023-12-22T04:20:40;8.07;;;2.30;;
830;SDS011;397;50.564;7.272;2023-12-22T04:23:07;9.47;;;2.50;;
830;SDS011;397;50.564;7.272;2023-12-22T04:25:34;14.47;;;2.60;;
830;SDS011;397;50.564;7.272;2023-12-22T04:28:01;8.77;;;3.07;;
830;SDS011;397;50.564;7.272;2023-12-22T04:30:29;7.10;;;2.20;;
830;SDS011;397;50.564;7.272;2023-12-22T04:32:56;5.40;;;2.30;;
830;SDS011;397;50.564;7.272;2023-12-22T04:35:23;9.33;;;2.20;;
830;SDS011;397;50.564;7.272;2023-12-22T04:37:50;6.27;;;2.03;;
830;SDS011;397;50.564;7.272;2023-12-22T04:40:18;8.20;;;2.30;;
830;SDS011;397;50.564;7.272;2023-12-22T04:42:45;6.70;;;3.17;;
830;SDS011;397;50.564;7.272;2023-12-22T04:45:13;13.20;;;2.90;;
830;SDS011;397;50.564;7.272;2023-12-22T04:47:40;12.93;;;2.70;;
830;SDS011;397;50.564;7.272;2023-12-22T04:50:07;8.40;;;3.73;;
830;SDS011;397;50.564;7.272;2023-12-22T04:52:35;5.87;;;2.37;;
830;SDS011;397;50.564;7.272;2023-12-22T04:55:02;11.67;;;2.70;;
830;SDS011;397;50.564;7.272;2023-12-22T04:57:30;12.90;;;2.47;;
830;SDS011;397;50.564;7.272;2023-12-22T04:59:57;6.63;;;2.03;;
830;SDS011;397;50.564;7.272;2023-12-22T05:02:24;3.03;;;1.30;;
830;SDS011;397;50.564;7.272;2023-12-22T05:04:51;7.13;;;2.90;;
830;SDS011;397;50.564;7.272;2023-12-22T05:07:18;7.57;;;2.90;;
830;SDS011;397;50.564;7.272;2023-12-22T05:09:46;8.07;;;2.40;;
830;SDS011;397;50.564;7.272;2023-12-22T05:12:13;8.20;;;2.00;;
830;SDS011;397;50.564;7.272;2023-12-22T05:14:41;8.23;;;2.80;;
830;SDS011;397;50.564;7.272;2023-12-22T05:17:08;7.47;;;2.20;;
830;SDS011;397;50.564;7.272;2023-12-22T05:19:36;9.07;;;3.30;;
830;SDS011;397;50.564;7.272;2023-12-22T05:22:04;9.33;;;2.83;;
830;SDS011;397;50.564;7.272;2023-12-22T05:24:31;5.97;;;2.63;;
830;SDS011;397;50.564;7.272;2023-12-22T05:26:58;9.43;;;4.90;;
830;SDS011;397;50.564;7.272;2023-12-22T05:29:26;14.63;;;3.77;;
830;SDS011;397;50.564;7.272;2023-12-22T05:31:53;11.47;;;3.23;;
830;SDS011;397;50.564;7.272;2023-12-22T05:34:20;8.57;;;3.17;;
830;SDS011;397;50.564;7.272;2023-12-22T05:36:47;7.03;;;2.77;;
830;SDS011;397;50.564;7.272;2023-12-22T05:39:15;8.17;;;2.80;;
830;SDS011;397;50.564;7.272;2023-12-22T05:41:42;7.13;;;3.07;;
830;SDS011;397;50.564;7.272;2023-12-22T05:44:09;7.50;;;3.10;;
830;SDS011;397;50.564;7.272;2023-12-22T05:46:36;8.80;;;3.60;;
830;SDS011;397;50.564;7.272;2023-12-22T05:49:04;11.57;;;3.03;;
830;SDS011;397;50.564;7.272;2023-12-22T05:51:38;6.73;;;2.47;;
830;SDS011;397;50.564;7.272;2023-12-22T05:54:07;13.70;;;3.67;;
830;SDS011;397;50.564;7.272;2023-12-22T05:56:34;12.67;;;2.97;;
830;SDS011;397;50.564;7.272;2023-12-22T05:59:02;7.40;;;2.80;;
830;SDS011;397;50.564;7.272;2023-12-22T06:01:29;10.13;;;2.60;;
830;SDS011;397;50.564;7.272;2023-12-22T06:03:56;13.00;;;3.10;;
830;SDS011;397;50.564;7.272;2023-12-22T06:06:24;9.30;;;2.60;;
830;SDS011;397;50.564;7.272;2023-12-22T06:08:51;14.23;;;3.27;;
830;SDS011;397;50.564;7.272;2023-12-22T06:11:18;12.23;;;3.07;;
830;SDS011;397;50.564;7.272;2023-12-22T06:13:46;10.17;;;3.20;;
830;SDS011;397;50.564;7.272;2023-12-22T06:16:13;9.00;;;2.90;;
830;SDS011;397;50.564;7.272;2023-12-22T06:18:41;11.43;;;2.80;;
830;SDS011;397;50.564;7.272;2023-12-22T06:21:09;10.20;;;3.50;;
830;SDS011;397;50.564;7.272;2023-12-22T06:23:37;14.53;;;2.93;;
830;SDS011;397;50.564;7.272;2023-12-22T06:26:08;17.40;;;2.90;;
830;SDS011;397;50.564;7.272;2023-12-22T06:28:33;10.97;;;2.67;;
830;SDS011;397;50.564;7.272;2023-12-22T06:31:02;10.57;;;2.90;;
830;SDS011;397;50.564;7.272;2023-12-22T06:33:29;8.13;;;2.67;;
830;SDS011;397;50.564;7.272;2023-12-22T06:35:57;15.87;;;3.40;;
830;SDS011;397;50.564;7.272;2023-12-22T06:38:24;11.97;;;2.70;;
830;SDS011;397;50.564;7.272;2023-12-22T06:40:51;11.20;;;2.60;;
830;SDS011;397;50.564;7.272;2023-12-22T06:43:18;8.03;;;2.53;;
830;SDS011;397;50.564;7.272;2023-12-22T06:45:46;10.50;;;2.97;;
830;SDS011;397;50.564;7.272;2023-12-22T06:48:14;7.27;;;2.13;;
830;SDS011;397;50.564;7.272;2023-12-22T06:50:41;15.43;;;3.60;;
830;SDS011;397;50.564;7.272;2023-12-22T06:53:10;11.00;;;2.40;;
830;SDS011;397;50.564;7.272;2023-12-22T06:55:37;13.83;;;4.63;;
830;SDS011;397;50.564;7.272;2023-12-22T06:58:05;8.40;;;3.07;;
830;SDS011;397;50.564;7.272;2023-12-22T07:00:32;12.27;;;2.73;;
830;SDS011;397;50.564;7.272;2023-12-22T07:02:59;10.83;;;1.90;;
830;SDS011;397;50.564;7.272;2023-12-22T07:05:29;9.87;;;3.00;;
830;SDS011;397;50.564;7.272;2023-12-22T07:07:57;5.77;;;2.60;;
830;SDS011;397;50.564;7.272;2023-12-22T07:10:24;7.27;;;2.13;;
830;SDS011;397;50.564;7.272;2023-12-22T07:12:51;6.83;;;2.17;;
830;SDS011;397;50.564;7.272;2023-12-22T07:15:19;8.37;;;2.17;;
830;SDS011;397;50.564;7.272;2023-12-22T07:17:46;7.40;;;2.10;;
830;SDS011;397;50.564;7.272;2023-12-22T07:20:13;6.90;;;1.70;;
830;SDS011;397;50.564;7.272;2023-12-22T07:22:40;6.00;;;1.87;;
830;SDS011;397;50.564;7.272;2023-12-22T07:25:08;8.80;;;1.60;;
830;SDS011;397;50.564;7.272;2023-12-22T07:27:35;3.67;;;1.40;;
830;SDS011;397;50.564;7.272;2023-12-22T07:30:02;10.17;;;2.30;;
830;SDS011;397;50.564;7.272;2023-12-22T07:32:30;6.20;;;1.60;;
830;SDS011;397;50.564;7.272;2023-12-22T07:34:57;2.93;;;1.57;;
830;SDS011;397;50.564;7.272;2023-12-22T07:37:24;4.13;;;1.43;;
830;SDS011;397;50.564;7.272;2023-12-22T07:39:51;3.27;;;1.20;;
830;SDS011;397;50.564;7.272;2023-12-22T07:42:19;6.37;;;1.77;;
830;SDS011;397;50.564;7.272;2023-12-22T07:44:46;10.67;;;2.10;;
830;SDS011;397;50.564;7.272;2023-12-22T07:47:13;2.63;;;1.30;;
830;SDS011;397;50.564;7.272;2023-12-22T07:49:40;3.60;;;1.53;;
830;SDS011;397;50.564;7.272;2023-12-22T07:52:08;4.63;;;1.80;;
830;SDS011;397;50.564;7.272;2023-12-22T07:54:35;3.33;;;1.23;;
830;SDS011;397;50.564;7.272;2023-12-22T07:57:03;2.93;;;1.80;;
830;SDS011;397;50.564;7.272;2023-12-22T07:59:30;3.33;;;1.17;;
830;SDS011;397;50.564;7.272;2023-12-22T08:01:57;5.03;;;1.70;;
830;SDS011;397;50.564;7.272;2023-12-22T08:04:25;5.93;;;1.80;;
830;SDS011;397;50.564;7.272;2023-12-22T08:06:52;4.50;;;1.33;;
830;SDS011;397;50.564;7.272;2023-12-22T08:09:19;5.27;;;1.70;;
830;SDS011;397;50.564;7.272;2023-12-22T08:11:48;4.07;;;1.73;;
830;SDS011;397;50.564;7.272;2023-12-22T08:14:18;7.87;;;2.07;;
830;SDS011;397;50.564;7.272;2023-12-22T08:16:45;11.07;;;3.53;;
830;SDS011;397;50.564;7.272;2023-12-22T08:19:12;10.77;;;3.13;;
830;SDS011;397;50.564;7.272;2023-12-22T08:21:42;4.30;;;2.67;;
830;SDS011;397;50.564;7.272;2023-12-22T08:24:08;10.10;;;2.67;;
830;SDS011;397;50.564;7.272;2023-12-22T08:26:37;17.40;;;4.00;;
830;SDS011;397;50.564;7.272;2023-12-22T08:29:04;11.13;;;4.10;;
830;SDS011;397;50.564;7.272;2023-12-22T08:31:32;15.90;;;4.80;;
830;SDS011;397;50.564;7.272;2023-12-22T08:33:59;21.60;;;4.80;;
830;SDS011;397;50.564;7.272;2023-12-22T08:36:26;13.80;;;5.73;;
830;SDS011;397;50.564;7.272;2023-12-22T08:38:54;20.10;;;5.80;;
830;SDS011;397;50.564;7.272;2023-12-22T08:41:21;20.20;;;4.90;;
830;SDS011;397;50.564;7.272;2023-12-22T08:43:48;13.77;;;4.03;;
830;SDS011;397;50.564;7.272;2023-12-22T08:46:15;10.60;;;3.67;;
830;SDS011;397;50.564;7.272;2023-12-22T08:48:44;18.07;;;4.90;;
830;SDS011;397;50.564;7.272;2023-12-22T08:51:11;22.23;;;4.80;;
830;SDS011;397;50.564;7.272;2023-12-22T08:53:38;13.10;;;4.27;;
830;SDS011;397;50.564;7.272;2023-12-22T08:56:06;15.73;;;3.63;;
830;SDS011;397;50.564;7.272;2023-12-22T08:58:34;11.97;;;4.30;;
830;SDS011;397;50.564;7.272;2023-12-22T09:01:02;11.80;;;3.73;;
830;SDS011;397;50.564;7.272;2023-12-22T09:03:32;14.30;;;5.07;;
830;SDS011;397;50.564;7.272;2023-12-22T09:05:58;16.10;;;5.30;;
830;SDS011;397;50.564;7.272;2023-12-22T09:08:25;11.40;;;4.23;;
830;SDS011;397;50.564;7.272;2023-12-22T09:10:53;21.67;;;4.27;;
830;SDS011;397;50.564;7.272;2023-12-22T09:13:20;13.47;;;3.37;;
830;SDS011;397;50.564;7.272;2023-12-22T09:15:47;11.00;;;3.40;;
830;SDS011;397;50.564;7.272;2023-12-22T09:18:15;9.17;;;3.27;;
830;SDS011;397;50.564;7.272;2023-12-22T09:20:42;21.50;;;5.77;;
830;SDS011;397;50.564;7.272;2023-12-22T09:23:09;10.20;;;4.03;;
830;SDS011;397;50.564;7.272;2023-12-22T09:25:36;14.50;;;4.50;;
830;SDS011;397;50.564;7.272;2023-12-22T09:28:05;13.93;;;4.53;;
830;SDS011;397;50.564;7.272;2023-12-22T09:30:32;14.27;;;4.73;;
830;SDS011;397;50.564;7.272;2023-12-22T09:32:59;12.43;;;5.03;;
830;SDS011;397;50.564;7.272;2023-12-22T09:35:27;9.47;;;4.20;;
830;SDS011;397;50.564;7.272;2023-12-22T09:37:55;12.03;;;4.43;;
830;SDS011;397;50.564;7.272;2023-12-22T09:40:22;18.07;;;5.37;;
830;SDS011;397;50.564;7.272;2023-12-22T09:42:49;14.30;;;3.87;;
830;SDS011;397;50.564;7.272;2023-12-22T09:45:17;9.83;;;3.10;;
830;SDS011;397;50.564;7.272;2023-12-22T09:47:47;8.10;;;3.57;;
830;SDS011;397;50.564;7.272;2023-12-22T09:50:15;14.30;;;3.57;;
830;SDS011;397;50.564;7.272;2023-12-22T09:52:43;12.47;;;4.00;;
830;SDS011;397;50.564;7.272;2023-12-22T09:55:12;11.80;;;4.23;;
830;SDS011;397;50.564;7.272;2023-12-22T09:57:39;13.23;;;4.20;;
830;SDS011;397;50.564;7.272;2023-12-22T10:00:08;5.90;;;2.60;;
830;SDS011;397;50.564;7.272;2023-12-22T10:02:39;7.80;;;2.90;;
830;SDS011;397;50.564;7.272;2023-12-22T10:05:07;5.67;;;2.80;;
830;SDS011;397;50.564;7.272;2023-12-22T10:07:35;7.80;;;3.73;;
830;SDS011;397;50.564;7.272;2023-12-22T10:10:02;8.87;;;2.60;;
830;SDS011;397;50.564;7.272;2023-12-22T10:12:30;11.03;;;3.80;;
830;SDS011;397;50.564;7.272;2023-12-22T10:14:59;11.40;;;3.10;;
830;SDS011;397;50.564;7.272;2023-12-22T10:17:27;11.33;;;4.07;;
830;SDS011;397;50.564;7.272;2023-12-22T10:19:54;5.97;;;2.40;;
830;SDS011;397;50.564;7.272;2023-12-22T10:22:21;7.40;;;2.63;;
830;SDS011;397;50.564;7.272;2023-12-22T10:24:50;3.90;;;1.53;;
830;SDS011;397;50.564;7.272;2023-12-22T10:27:17;7.47;;;1.87;;
830;SDS011;397;50.564;7.272;2023-12-22T10:29:47;4.77;;;1.60;;
830;SDS011;397;50.564;7.272;2023-12-22T10:32:15;5.63;;;1.83;;
830;SDS011;397;50.564;7.272;2023-12-22T10:34:43;6.37;;;1.80;;
830;SDS011;397;50.564;7.272;2023-12-22T10:37:10;6.00;;;1.83;;
830;SDS011;397;50.564;7.272;2023-12-22T10:39:39;4.30;;;1.53;;
830;SDS011;397;50.564;7.272;2023-12-22T10:42:06;6.53;;;1.90;;
830;SDS011;397;50.564;7.272;2023-12-22T10:44:34;6.10;;;1.63;;
830;SDS011;397;50.564;7.272;2023-12-22T10:47:01;3.17;;;1.90;;
830;SDS011;397;50.564;7.272;2023-12-22T10:49:29;4.83;;;1.53;;
830;SDS011;397;50.564;7.272;2023-12-22T10:51:57;3.03;;;1.87;;
830;SDS011;397;50.564;7.272;2023-12-22T10:54:24;5.60;;;1.30;;
830;SDS011;397;50.564;7.272;2023-12-22T10:56:52;3.90;;;1.33;;
830;SDS011;397;50.564;7.272;2023-12-22T10:59:19;4.93;;;1.30;;
830;SDS011;397;50.564;7.272;2023-12-22T11:01:48;4.30;;;1.50;;
830;SDS011;397;50.564;7.272;2023-12-22T11:04:17;4.13;;;1.70;;
830;SDS011;397;50.564;7.272;2023-12-22T11:06:46;4.80;;;1.30;;
830;SDS011;397;50.564;7.272;2023-12-22T11:09:15;3.50;;;1.20;;
830;SDS011;397;50.564;7.272;2023-12-22T11:11:43;2.33;;;0.80;;
830;SDS011;397;50.564;7.272;2023-12-22T11:14:11;3.33;;;1.67;;
830;SDS011;397;50.564;7.272;2023-12-22T11:16:39;2.03;;;1.10;;
830;SDS011;397;50.564;7.272;2023-12-22T11:19:09;4.87;;;1.57;;
830;SDS011;397;50.564;7.272;2023-12-22T11:21:38;2.50;;;1.13;;
830;SDS011;397;50.564;7.272;2023-12-22T11:24:06;3.27;;;1.50;;
830;SDS011;397;50.564;7.272;2023-12-22T11:26:34;5.23;;;1.13;;
830;SDS011;397;50.564;7.272;2023-12-22T11:29:02;2.60;;;1.10;;
830;SDS011;397;50.564;7.272;2023-12-22T11:31:31;2.63;;;1.00;;
830;SDS011;397;50.564;7.272;2023-12-22T11:33:58;5.30;;;1.70;;
830;SDS011;397;50.564;7.272;2023-12-22T11:36:25;7.23;;;1.53;;
830;SDS011;397;50.564;7.272;2023-12-22T11:38:53;2.83;;;1.30;;
830;SDS011;397;50.564;7.272;2023-12-22T11:41:21;2.20;;;1.10;;
830;SDS011;397;50.564;7.272;2023-12-22T11:43:49;2.50;;;1.70;;
830;SDS011;397;50.564;7.272;2023-12-22T11:46:18;4.37;;;1.27;;
830;SDS011;397;50.564;7.272;2023-12-22T11:48:48;2.80;;;1.63;;
830;SDS011;397;50.564;7.272;2023-12-22T11:51:14;5.03;;;1.33;;
830;SDS011;397;50.564;7.272;2023-12-22T11:53:42;2.03;;;1.10;;
830;SDS011;397;50.564;7.272;2023-12-22T11:56:09;3.90;;;1.63;;
830;SDS011;397;50.564;7.272;2023-12-22T11:58:43;2.30;;;1.50;;
830;SDS011;397;50.564;7.272;2023-12-22T12:01:12;4.13;;;2.00;;
830;SDS011;397;50.564;7.272;2023-12-22T12:03:40;6.47;;;2.03;;
830;SDS011;397;50.564;7.272;2023-12-22T12:06:13;2.77;;;1.77;;
830;SDS011;397;50.564;7.272;2023-12-22T12:08:39;2.57;;;1.30;;
830;SDS011;397;50.564;7.272;2023-12-22T12:11:08;2.93;;;1.40;;
830;SDS011;397;50.564;7.272;2023-12-22T12:13:36;3.60;;;1.20;;
830;SDS011;397;50.564;7.272;2023-12-22T12:16:04;2.20;;;1.50;;
830;SDS011;397;50.564;7.272;2023-12-22T12:18:33;3.60;;;1.33;;
830;SDS011;397;50.564;7.272;2023-12-22T12:21:01;2.90;;;1.77;;
830;SDS011;397;50.564;7.272;2023-12-22T12:23:29;2.27;;;1.03;;
830;SDS011;397;50.564;7.272;2023-12-22T12:25:56;4.57;;;1.30;;
830;SDS011;397;50.564;7.272;2023-12-22T12:28:30;2.10;;;1.37;;
830;SDS011;397;50.564;7.272;2023-12-22T12:30:59;3.60;;;1.10;;
830;SDS011;397;50.564;7.272;2023-12-22T12:33:26;2.50;;;1.70;;
830;SDS011;397;50.564;7.272;2023-12-22T12:35:55;3.73;;;1.67;;
830;SDS011;397;50.564;7.272;2023-12-22T12:38:23;4.10;;;1.50;;
830;SDS011;397;50.564;7.272;2023-12-22T12:40:51;3.10;;;1.43;;
830;SDS011;397;50.564;7.272;2023-12-22T12:43:19;3.53;;;1.70;;
830;SDS011;397;50.564;7.272;2023-12-22T12:45:47;2.67;;;1.50;;
830;SDS011;397;50.564;7.272;2023-12-22T12:48:15;2.80;;;1.73;;
830;SDS011;397;50.564;7.272;2023-12-22T12:50:46;3.80;;;1.50;;
830;SDS011;397;50.564;7.272;2023-12-22T12:53:13;2.50;;;1.90;;
830;SDS011;397;50.564;7.272;2023-12-22T12:55:40;8.03;;;2.20;;
830;SDS011;397;50.564;7.272;2023-12-22T12:58:07;2.10;;;1.40;;
830;SDS011;397;50.564;7.272;2023-12-22T13:00:35;4.70;;;1.90;;
830;SDS011;397;50.564;7.272;2023-12-22T13:03:03;3.27;;;2.00;;
830;SDS011;397;50.564;7.272;2023-12-22T13:05:31;5.07;;;2.40;;
830;SDS011;397;50.564;7.272;2023-12-22T13:10:37;2.20;;;1.60;;
830;SDS011;397;50.564;7.272;2023-12-22T13:13:04;3.77;;;2.13;;
830;SDS011;397;50.564;7.272;2023-12-22T13:15:32;3.60;;;1.97;;
830;SDS011;397;50.564;7.272;2023-12-22T13:17:59;6.40;;;1.77;;
830;SDS011;397;50.564;7.272;2023-12-22T13:20:27;3.80;;;1.90;;
830;SDS011;397;50.564;7.272;2023-12-22T13:22:54;4.03;;;2.07;;
830;SDS011;397;50.564;7.272;2023-12-22T13:25:21;4.30;;;1.80;;
830;SDS011;397;50.564;7.272;2023-12-22T13:27:50;4.97;;;2.10;;
830;SDS011;397;50.564;7.272;2023-12-22T13:30:36;5.30;;;1.83;;
830;SDS011;397;50.564;7.272;2023-12-22T13:33:05;5.20;;;3.90;;
830;SDS011;397;50.564;7.272;2023-12-22T13:35:33;3.50;;;1.70;;
830;SDS011;397;50.564;7.272;2023-12-22T13:38:05;4.73;;;2.33;;
830;SDS011;397;50.564;7.272;2023-12-22T13:40:30;4.97;;;2.37;;
830;SDS011;397;50.564;7.272;2023-12-22T13:42:58;3.23;;;2.30;;
830;SDS011;397;50.564;7.272;2023-12-22T13:45:25;5.60;;;1.70;;
830;SDS011;397;50.564;7.272;2023-12-22T13:47:52;3.80;;;1.90;;
830;SDS011;397;50.564;7.272;2023-12-22T13:50:20;3.40;;;1.80;;
830;SDS011;397;50.564;7.272;2023-12-22T13:52:49;2.70;;;1.47;;
830;SDS011;397;50.564;7.272;2023-12-22T13:55:17;2.90;;;1.63;;
830;SDS011;397;50.564;7.272;2023-12-22T13:57:45;3.57;;;2.20;;
830;SDS011;397;50.564;7.272;2023-12-22T14:02:50;3.30;;;1.77;;
830;SDS011;397;50.564;7.272;2023-12-22T14:05:17;2.63;;;1.60;;
830;SDS011;397;50.564;7.272;2023-12-22T14:07:44;3.20;;;1.43;;
830;SDS011;397;50.564;7.272;2023-12-22T14:10:12;3.27;;;1.33;;
830;SDS011;397;50.564;7.272;2023-12-22T14:12:40;2.67;;;1.43;;
830;SDS011;397;50.564;7.272;2023-12-22T14:15:08;4.73;;;2.07;;
830;SDS011;397;50.564;7.272;2023-12-22T14:17:35;3.27;;;1.33;;
830;SDS011;397;50.564;7.272;2023-12-22T14:20:02;4.23;;;1.33;;
830;SDS011;397;50.564;7.272;2023-12-22T14:22:39;4.17;;;1.70;;
830;SDS011;397;50.564;7.272;2023-12-22T14:25:04;4.17;;;2.23;;
830;SDS011;397;50.564;7.272;2023-12-22T14:27:31;5.93;;;2.00;;
830;SDS011;397;50.564;7.272;2023-12-22T14:29:59;3.20;;;1.20;;
830;SDS011;397;50.564;7.272;2023-12-22T14:32:26;2.57;;;1.53;;
830;SDS011;397;50.564;7.272;2023-12-22T14:34:53;5.37;;;2.17;;
830;SDS011;397;50.564;7.272;2023-12-22T14:37:20;6.03;;;1.63;;
830;SDS011;397;50.564;7.272;2023-12-22T14:39:48;2.47;;;1.20;;
830;SDS011;397;50.564;7.272;2023-12-22T14:42:15;10.20;;;2.20;;
830;SDS011;397;50.564;7.272;2023-12-22T14:44:43;2.27;;;1.30;;
830;SDS011;397;50.564;7.272;2023-12-22T14:47:10;4.10;;;1.30;;
830;SDS011;397;50.564;7.272;2023-12-22T14:49:37;2.93;;;1.57;;
830;SDS011;397;50.564;7.272;2023-12-22T14:52:04;3.70;;;1.40;;
830;SDS011;397;50.564;7.272;2023-12-22T14:54:32;2.37;;;1.30;;
830;SDS011;397;50.564;7.272;2023-12-22T14:56:59;2.63;;;1.27;;
830;SDS011;397;50.564;7.272;2023-12-22T14:59:26;5.57;;;2.17;;
830;SDS011;397;50.564;7.272;2023-12-22T15:01:54;4.40;;;1.70;;
830;SDS011;397;50.564;7.272;2023-12-22T15:04:22;4.70;;;1.43;;
830;SDS011;397;50.564;7.272;2023-12-22T15:06:49;2.40;;;1.30;;
830;SDS011;397;50.564;7.272;2023-12-22T15:09:16;3.70;;;1.83;;
830;SDS011;397;50.564;7.272;2023-12-22T15:11:44;7.87;;;2.07;;
830;SDS011;397;50.564;7.272;2023-12-22T15:14:12;2.40;;;1.60;;
830;SDS011;397;50.564;7.272;2023-12-22T15:16:40;2.17;;;1.50;;
830;SDS011;397;50.564;7.272;2023-12-22T15:19:07;4.80;;;2.03;;
830;SDS011;397;50.564;7.272;2023-12-22T15:21:34;4.47;;;1.70;;
830;SDS011;397;50.564;7.272;2023-12-22T15:24:03;4.67;;;1.20;;
830;SDS011;397;50.564;7.272;2023-12-22T15:26:30;5.03;;;1.90;;
830;SDS011;397;50.564;7.272;2023-12-22T15:29:00;4.77;;;2.47;;
830;SDS011;397;50.564;7.272;2023-12-22T15:31:27;4.07;;;1.90;;
830;SDS011;397;50.564;7.272;2023-12-22T15:33:56;4.47;;;1.50;;
830;SDS011;397;50.564;7.272;2023-12-22T15:36:24;5.50;;;1.97;;
830;SDS011;397;50.564;7.272;2023-12-22T15:38:53;5.50;;;1.70;;
830;SDS011;397;50.564;7.272;2023-12-22T15:41:20;8.33;;;2.20;;
830;SDS011;397;50.564;7.272;2023-12-22T15:43:47;3.40;;;1.67;;
830;SDS011;397;50.564;7.272;2023-12-22T15:46:15;6.07;;;1.80;;
830;SDS011;397;50.564;7.272;2023-12-22T15:48:42;4.87;;;1.63;;
830;SDS011;397;50.564;7.272;2023-12-22T15:51:10;2.97;;;1.40;;
830;SDS011;397;50.564;7.272;2023-12-22T15:53:38;5.50;;;1.60;;